Terminal Aerodrome Forecast
Issued by NWS

Home | Current Version | Previous Version | Text Only | Print | Product List | Glossary On
Versions: 1 2 3 4 5 6 7 8 9 10 11 12 13
000
FTPQ31 PGUM 311700
TAFPQ
TAF

PTYA 311733Z 3118/0118 21010G18KT P6SM -SHRA BKN015 OVC100
      TEMPO 3118/3120 2SM +TSRA BKN014 BKN030CB OVC060
     FM312200 20014G20KT P6SM VCSH SCT016 BKN040 BKN120=

USA.gov is the U.S. government's official web portal to all federal, state and local government web resources and services.